sensor_id;sensor_type;location;lat;lon;timestamp;P1;durP1;ratioP1;P2;durP2;ratioP2
82646;SDS011;72325;41.910;22.404;2024-01-25T00:00:40;58.40;;;32.35;;
82646;SDS011;72325;41.910;22.404;2024-01-25T00:03:06;61.55;;;34.35;;
82646;SDS011;72325;41.910;22.404;2024-01-25T00:08:36;57.28;;;31.08;;
82646;SDS011;72325;41.910;22.404;2024-01-25T00:11:02;59.58;;;30.10;;
82646;SDS011;72325;41.910;22.404;2024-01-25T00:13:29;50.80;;;29.65;;
82646;SDS011;72325;41.910;22.404;2024-01-25T00:15:55;39.10;;;20.88;;
82646;SDS011;72325;41.910;22.404;2024-01-25T00:18:21;45.45;;;25.77;;
82646;SDS011;72325;41.910;22.404;2024-01-25T00:20:47;46.38;;;29.20;;
82646;SDS011;72325;41.910;22.404;2024-01-25T00:23:13;48.60;;;28.52;;
82646;SDS011;72325;41.910;22.404;2024-01-25T00:25:39;33.03;;;18.30;;
82646;SDS011;72325;41.910;22.404;2024-01-25T00:28:05;70.85;;;37.65;;
82646;SDS011;72325;41.910;22.404;2024-01-25T00:30:32;51.33;;;30.77;;
82646;SDS011;72325;41.910;22.404;2024-01-25T00:32:58;39.22;;;23.00;;
82646;SDS011;72325;41.910;22.404;2024-01-25T00:38:27;40.00;;;21.17;;
82646;SDS011;72325;41.910;22.404;2024-01-25T00:40:53;37.65;;;22.40;;
82646;SDS011;72325;41.910;22.404;2024-01-25T00:43:19;38.10;;;21.55;;
82646;SDS011;72325;41.910;22.404;2024-01-25T00:45:46;41.00;;;22.70;;
82646;SDS011;72325;41.910;22.404;2024-01-25T00:48:12;41.45;;;22.15;;
82646;SDS011;72325;41.910;22.404;2024-01-25T00:53:41;36.95;;;21.08;;
82646;SDS011;72325;41.910;22.404;2024-01-25T00:56:08;45.38;;;25.67;;
82646;SDS011;72325;41.910;22.404;2024-01-25T00:58:34;56.08;;;28.23;;
82646;SDS011;72325;41.910;22.404;2024-01-25T01:01:00;49.78;;;28.27;;
82646;SDS011;72325;41.910;22.404;2024-01-25T01:03:27;58.63;;;32.45;;
82646;SDS011;72325;41.910;22.404;2024-01-25T01:08:56;40.63;;;19.67;;
82646;SDS011;72325;41.910;22.404;2024-01-25T01:11:24;29.95;;;16.17;;
82646;SDS011;72325;41.910;22.404;2024-01-25T01:13:50;27.27;;;14.20;;
82646;SDS011;72325;41.910;22.404;2024-01-25T01:16:16;36.85;;;20.92;;
82646;SDS011;72325;41.910;22.404;2024-01-25T01:18:44;33.58;;;17.52;;
82646;SDS011;72325;41.910;22.404;2024-01-25T01:21:10;32.70;;;18.33;;
82646;SDS011;72325;41.910;22.404;2024-01-25T01:23:37;46.80;;;26.70;;
82646;SDS011;72325;41.910;22.404;2024-01-25T01:26:03;60.10;;;32.97;;
82646;SDS011;72325;41.910;22.404;2024-01-25T01:28:29;73.20;;;40.15;;
82646;SDS011;72325;41.910;22.404;2024-01-25T01:30:55;75.57;;;40.75;;
82646;SDS011;72325;41.910;22.404;2024-01-25T01:33:22;65.88;;;36.20;;
82646;SDS011;72325;41.910;22.404;2024-01-25T01:38:51;65.50;;;34.35;;
82646;SDS011;72325;41.910;22.404;2024-01-25T01:41:17;71.88;;;35.03;;
82646;SDS011;72325;41.910;22.404;2024-01-25T01:43:43;95.50;;;43.92;;
82646;SDS011;72325;41.910;22.404;2024-01-25T01:46:10;72.47;;;39.10;;
82646;SDS011;72325;41.910;22.404;2024-01-25T01:48:38;91.22;;;48.90;;
82646;SDS011;72325;41.910;22.404;2024-01-25T01:54:09;96.03;;;43.60;;
82646;SDS011;72325;41.910;22.404;2024-01-25T01:56:35;112.32;;;50.90;;
82646;SDS011;72325;41.910;22.404;2024-01-25T01:59:02;58.42;;;30.88;;
82646;SDS011;72325;41.910;22.404;2024-01-25T02:01:29;57.03;;;31.13;;
82646;SDS011;72325;41.910;22.404;2024-01-25T02:03:56;53.35;;;27.52;;
82646;SDS011;72325;41.910;22.404;2024-01-25T02:06:24;28.17;;;15.48;;
82646;SDS011;72325;41.910;22.404;2024-01-25T02:08:51;23.45;;;12.35;;
82646;SDS011;72325;41.910;22.404;2024-01-25T02:11:18;19.02;;;11.82;;
82646;SDS011;72325;41.910;22.404;2024-01-25T02:13:45;26.13;;;15.40;;
82646;SDS011;72325;41.910;22.404;2024-01-25T02:16:12;24.67;;;13.77;;
82646;SDS011;72325;41.910;22.404;2024-01-25T02:18:40;24.20;;;13.00;;
82646;SDS011;72325;41.910;22.404;2024-01-25T02:24:10;21.23;;;11.18;;
82646;SDS011;72325;41.910;22.404;2024-01-25T02:26:36;17.98;;;10.45;;
82646;SDS011;72325;41.910;22.404;2024-01-25T02:29:02;18.45;;;10.63;;
82646;SDS011;72325;41.910;22.404;2024-01-25T02:31:30;15.55;;;9.50;;
82646;SDS011;72325;41.910;22.404;2024-01-25T02:33:56;20.88;;;10.95;;
82646;SDS011;72325;41.910;22.404;2024-01-25T02:39:25;22.65;;;11.93;;
82646;SDS011;72325;41.910;22.404;2024-01-25T02:41:51;22.85;;;13.18;;
82646;SDS011;72325;41.910;22.404;2024-01-25T02:44:17;15.13;;;8.30;;
82646;SDS011;72325;41.910;22.404;2024-01-25T02:46:43;15.43;;;10.35;;
82646;SDS011;72325;41.910;22.404;2024-01-25T02:49:11;15.23;;;9.02;;
82646;SDS011;72325;41.910;22.404;2024-01-25T02:51:37;15.38;;;9.05;;
82646;SDS011;72325;41.910;22.404;2024-01-25T02:54:03;16.95;;;10.00;;
82646;SDS011;72325;41.910;22.404;2024-01-25T02:56:29;17.13;;;10.80;;
82646;SDS011;72325;41.910;22.404;2024-01-25T02:58:59;19.55;;;11.27;;
82646;SDS011;72325;41.910;22.404;2024-01-25T03:01:26;18.83;;;11.10;;
82646;SDS011;72325;41.910;22.404;2024-01-25T03:03:52;18.67;;;12.68;;
82646;SDS011;72325;41.910;22.404;2024-01-25T03:09:22;25.65;;;12.90;;
82646;SDS011;72325;41.910;22.404;2024-01-25T03:11:48;24.52;;;13.57;;
82646;SDS011;72325;41.910;22.404;2024-01-25T03:14:15;24.73;;;13.35;;
82646;SDS011;72325;41.910;22.404;2024-01-25T03:16:41;31.05;;;17.35;;
82646;SDS011;72325;41.910;22.404;2024-01-25T03:19:08;29.27;;;15.60;;
82646;SDS011;72325;41.910;22.404;2024-01-25T03:24:37;32.28;;;18.67;;
82646;SDS011;72325;41.910;22.404;2024-01-25T03:27:04;34.35;;;17.30;;
82646;SDS011;72325;41.910;22.404;2024-01-25T03:29:30;33.42;;;20.00;;
82646;SDS011;72325;41.910;22.404;2024-01-25T03:31:56;36.53;;;20.35;;
82646;SDS011;72325;41.910;22.404;2024-01-25T03:34:22;38.55;;;23.52;;
82646;SDS011;72325;41.910;22.404;2024-01-25T03:36:48;42.22;;;21.67;;
82646;SDS011;72325;41.910;22.404;2024-01-25T03:39:17;32.45;;;16.80;;
82646;SDS011;72325;41.910;22.404;2024-01-25T03:41:43;17.65;;;11.27;;
82646;SDS011;72325;41.910;22.404;2024-01-25T03:44:09;18.00;;;8.85;;
82646;SDS011;72325;41.910;22.404;2024-01-25T03:46:35;15.60;;;9.75;;
82646;SDS011;72325;41.910;22.404;2024-01-25T03:49:01;15.90;;;9.80;;
82646;SDS011;72325;41.910;22.404;2024-01-25T03:54:32;19.73;;;11.45;;
82646;SDS011;72325;41.910;22.404;2024-01-25T03:56:58;22.95;;;12.50;;
82646;SDS011;72325;41.910;22.404;2024-01-25T03:59:25;20.23;;;12.68;;
82646;SDS011;72325;41.910;22.404;2024-01-25T04:01:51;22.40;;;13.05;;
82646;SDS011;72325;41.910;22.404;2024-01-25T04:04:17;19.05;;;11.18;;
82646;SDS011;72325;41.910;22.404;2024-01-25T04:09:46;15.70;;;10.18;;
82646;SDS011;72325;41.910;22.404;2024-01-25T04:12:12;12.07;;;6.80;;
82646;SDS011;72325;41.910;22.404;2024-01-25T04:14:38;13.68;;;8.15;;
82646;SDS011;72325;41.910;22.404;2024-01-25T04:17:04;14.90;;;7.63;;
82646;SDS011;72325;41.910;22.404;2024-01-25T04:19:31;14.20;;;7.70;;
82646;SDS011;72325;41.910;22.404;2024-01-25T04:21:57;10.82;;;7.18;;
82646;SDS011;72325;41.910;22.404;2024-01-25T04:24:23;13.32;;;6.97;;
82646;SDS011;72325;41.910;22.404;2024-01-25T04:26:49;10.65;;;5.32;;
82646;SDS011;72325;41.910;22.404;2024-01-25T04:29:15;11.85;;;7.03;;
82646;SDS011;72325;41.910;22.404;2024-01-25T04:31:45;11.25;;;6.90;;
82646;SDS011;72325;41.910;22.404;2024-01-25T04:34:14;13.68;;;7.38;;
82646;SDS011;72325;41.910;22.404;2024-01-25T04:39:44;14.13;;;9.57;;
82646;SDS011;72325;41.910;22.404;2024-01-25T04:42:10;16.40;;;8.63;;
82646;SDS011;72325;41.910;22.404;2024-01-25T04:44:36;16.00;;;8.88;;
82646;SDS011;72325;41.910;22.404;2024-01-25T04:47:02;15.18;;;9.05;;
82646;SDS011;72325;41.910;22.404;2024-01-25T04:49:28;18.45;;;11.52;;
82646;SDS011;72325;41.910;22.404;2024-01-25T04:54:58;25.65;;;14.90;;
82646;SDS011;72325;41.910;22.404;2024-01-25T04:57:24;24.77;;;11.32;;
82646;SDS011;72325;41.910;22.404;2024-01-25T04:59:50;18.60;;;11.75;;
82646;SDS011;72325;41.910;22.404;2024-01-25T05:02:16;18.13;;;11.02;;
82646;SDS011;72325;41.910;22.404;2024-01-25T05:04:42;17.70;;;11.32;;
82646;SDS011;72325;41.910;22.404;2024-01-25T05:07:08;23.95;;;13.98;;
82646;SDS011;72325;41.910;22.404;2024-01-25T05:09:34;27.25;;;14.63;;
82646;SDS011;72325;41.910;22.404;2024-01-25T05:12:00;29.60;;;18.83;;
82646;SDS011;72325;41.910;22.404;2024-01-25T05:14:27;23.35;;;15.77;;
82646;SDS011;72325;41.910;22.404;2024-01-25T05:16:53;25.73;;;16.08;;
82646;SDS011;72325;41.910;22.404;2024-01-25T05:19:19;26.63;;;15.88;;
82646;SDS011;72325;41.910;22.404;2024-01-25T05:24:48;23.77;;;14.02;;
82646;SDS011;72325;41.910;22.404;2024-01-25T05:27:14;20.00;;;12.82;;
82646;SDS011;72325;41.910;22.404;2024-01-25T05:29:40;25.30;;;15.13;;
82646;SDS011;72325;41.910;22.404;2024-01-25T05:32:07;24.88;;;14.95;;
82646;SDS011;72325;41.910;22.404;2024-01-25T05:34:33;26.10;;;15.73;;
82646;SDS011;72325;41.910;22.404;2024-01-25T05:40:02;32.25;;;17.55;;
82646;SDS011;72325;41.910;22.404;2024-01-25T05:42:28;25.00;;;15.82;;
82646;SDS011;72325;41.910;22.404;2024-01-25T05:44:54;28.60;;;16.30;;
82646;SDS011;72325;41.910;22.404;2024-01-25T05:47:20;20.45;;;12.50;;
82646;SDS011;72325;41.910;22.404;2024-01-25T05:49:46;25.02;;;15.00;;
82646;SDS011;72325;41.910;22.404;2024-01-25T05:55:16;23.13;;;14.02;;
82646;SDS011;72325;41.910;22.404;2024-01-25T05:57:42;20.90;;;13.50;;
82646;SDS011;72325;41.910;22.404;2024-01-25T06:00:11;21.05;;;11.73;;
82646;SDS011;72325;41.910;22.404;2024-01-25T06:02:39;21.40;;;13.50;;
82646;SDS011;72325;41.910;22.404;2024-01-25T06:05:05;29.42;;;16.35;;
82646;SDS011;72325;41.910;22.404;2024-01-25T06:07:32;45.95;;;23.50;;
82646;SDS011;72325;41.910;22.404;2024-01-25T06:09:58;41.15;;;26.35;;
82646;SDS011;72325;41.910;22.404;2024-01-25T06:12:24;36.70;;;21.73;;
82646;SDS011;72325;41.910;22.404;2024-01-25T06:14:51;46.60;;;27.50;;
82646;SDS011;72325;41.910;22.404;2024-01-25T06:17:17;32.15;;;18.83;;
82646;SDS011;72325;41.910;22.404;2024-01-25T06:19:43;37.40;;;21.83;;
82646;SDS011;72325;41.910;22.404;2024-01-25T06:25:13;39.72;;;21.30;;
82646;SDS011;72325;41.910;22.404;2024-01-25T06:27:39;34.33;;;20.58;;
82646;SDS011;72325;41.910;22.404;2024-01-25T06:30:05;38.20;;;19.88;;
82646;SDS011;72325;41.910;22.404;2024-01-25T06:32:31;33.75;;;18.50;;
82646;SDS011;72325;41.910;22.404;2024-01-25T06:34:57;26.98;;;17.48;;
82646;SDS011;72325;41.910;22.404;2024-01-25T06:40:27;38.65;;;23.55;;
82646;SDS011;72325;41.910;22.404;2024-01-25T06:42:53;44.13;;;23.38;;
82646;SDS011;72325;41.910;22.404;2024-01-25T06:45:19;33.47;;;21.38;;
82646;SDS011;72325;41.910;22.404;2024-01-25T06:47:45;38.58;;;23.77;;
82646;SDS011;72325;41.910;22.404;2024-01-25T06:50:11;39.03;;;22.90;;
82646;SDS011;72325;41.910;22.404;2024-01-25T06:55:43;45.38;;;25.92;;
82646;SDS011;72325;41.910;22.404;2024-01-25T06:58:09;39.20;;;22.38;;
82646;SDS011;72325;41.910;22.404;2024-01-25T07:00:35;35.22;;;20.05;;
82646;SDS011;72325;41.910;22.404;2024-01-25T07:03:03;29.75;;;19.65;;
82646;SDS011;72325;41.910;22.404;2024-01-25T07:05:29;24.83;;;16.20;;
82646;SDS011;72325;41.910;22.404;2024-01-25T07:07:58;21.90;;;13.48;;
82646;SDS011;72325;41.910;22.404;2024-01-25T07:10:24;22.17;;;14.25;;
82646;SDS011;72325;41.910;22.404;2024-01-25T07:12:51;24.33;;;14.10;;
82646;SDS011;72325;41.910;22.404;2024-01-25T07:15:18;19.98;;;13.45;;
82646;SDS011;72325;41.910;22.404;2024-01-25T07:17:45;28.42;;;18.20;;
82646;SDS011;72325;41.910;22.404;2024-01-25T07:20:11;36.45;;;22.67;;
82646;SDS011;72325;41.910;22.404;2024-01-25T07:25:40;34.33;;;19.33;;
82646;SDS011;72325;41.910;22.404;2024-01-25T07:28:06;28.58;;;18.65;;
82646;SDS011;72325;41.910;22.404;2024-01-25T07:30:32;27.00;;;17.08;;
82646;SDS011;72325;41.910;22.404;2024-01-25T07:32:58;34.72;;;19.67;;
82646;SDS011;72325;41.910;22.404;2024-01-25T07:35:25;30.35;;;17.92;;
82646;SDS011;72325;41.910;22.404;2024-01-25T07:40:54;30.10;;;19.27;;
82646;SDS011;72325;41.910;22.404;2024-01-25T07:43:20;28.17;;;17.70;;
82646;SDS011;72325;41.910;22.404;2024-01-25T07:45:46;26.40;;;17.30;;
82646;SDS011;72325;41.910;22.404;2024-01-25T07:48:13;30.35;;;17.83;;
82646;SDS011;72325;41.910;22.404;2024-01-25T07:50:39;28.52;;;17.55;;
82646;SDS011;72325;41.910;22.404;2024-01-25T07:56:08;36.42;;;23.20;;
82646;SDS011;72325;41.910;22.404;2024-01-25T07:58:36;34.00;;;20.17;;
82646;SDS011;72325;41.910;22.404;2024-01-25T08:01:05;41.58;;;25.50;;
82646;SDS011;72325;41.910;22.404;2024-01-25T08:03:31;38.40;;;22.98;;
82646;SDS011;72325;41.910;22.404;2024-01-25T08:05:58;52.47;;;30.92;;
82646;SDS011;72325;41.910;22.404;2024-01-25T08:11:28;65.32;;;37.78;;
82646;SDS011;72325;41.910;22.404;2024-01-25T08:13:54;61.17;;;34.08;;
82646;SDS011;72325;41.910;22.404;2024-01-25T08:16:20;43.15;;;27.73;;
82646;SDS011;72325;41.910;22.404;2024-01-25T08:18:47;45.40;;;28.98;;
82646;SDS011;72325;41.910;22.404;2024-01-25T08:21:13;48.30;;;32.15;;
82646;SDS011;72325;41.910;22.404;2024-01-25T08:23:43;42.83;;;25.02;;
82646;SDS011;72325;41.910;22.404;2024-01-25T08:26:13;44.33;;;25.67;;
82646;SDS011;72325;41.910;22.404;2024-01-25T08:28:40;46.25;;;28.98;;
82646;SDS011;72325;41.910;22.404;2024-01-25T08:31:08;33.50;;;19.25;;
82646;SDS011;72325;41.910;22.404;2024-01-25T08:33:34;31.58;;;17.70;;
82646;SDS011;72325;41.910;22.404;2024-01-25T08:36:00;22.98;;;16.33;;
82646;SDS011;72325;41.910;22.404;2024-01-25T08:41:32;23.98;;;15.65;;
82646;SDS011;72325;41.910;22.404;2024-01-25T08:43:58;20.90;;;12.93;;
82646;SDS011;72325;41.910;22.404;2024-01-25T08:46:24;18.88;;;12.65;;
82646;SDS011;72325;41.910;22.404;2024-01-25T08:48:50;22.70;;;13.57;;
82646;SDS011;72325;41.910;22.404;2024-01-25T08:51:18;24.77;;;14.48;;
82646;SDS011;72325;41.910;22.404;2024-01-25T08:56:47;21.58;;;12.70;;
82646;SDS011;72325;41.910;22.404;2024-01-25T08:59:13;25.80;;;15.93;;
82646;SDS011;72325;41.910;22.404;2024-01-25T09:01:39;23.83;;;14.65;;
82646;SDS011;72325;41.910;22.404;2024-01-25T09:04:05;28.13;;;17.58;;
82646;SDS011;72325;41.910;22.404;2024-01-25T09:06:32;25.38;;;15.75;;
82646;SDS011;72325;41.910;22.404;2024-01-25T09:08:59;24.23;;;14.75;;
82646;SDS011;72325;41.910;22.404;2024-01-25T09:11:25;25.48;;;16.40;;
82646;SDS011;72325;41.910;22.404;2024-01-25T09:13:51;28.85;;;17.65;;
82646;SDS011;72325;41.910;22.404;2024-01-25T09:16:17;22.23;;;13.25;;
82646;SDS011;72325;41.910;22.404;2024-01-25T09:18:43;19.55;;;12.02;;
82646;SDS011;72325;41.910;22.404;2024-01-25T09:21:09;20.73;;;12.73;;
82646;SDS011;72325;41.910;22.404;2024-01-25T09:26:39;27.50;;;17.42;;
82646;SDS011;72325;41.910;22.404;2024-01-25T09:29:05;35.78;;;21.55;;
82646;SDS011;72325;41.910;22.404;2024-01-25T09:31:31;44.38;;;25.20;;
82646;SDS011;72325;41.910;22.404;2024-01-25T09:33:57;44.08;;;28.75;;
82646;SDS011;72325;41.910;22.404;2024-01-25T09:36:23;48.35;;;27.95;;
82646;SDS011;72325;41.910;22.404;2024-01-25T09:42:07;42.45;;;27.23;;
82646;SDS011;72325;41.910;22.404;2024-01-25T09:44:33;45.38;;;27.70;;
82646;SDS011;72325;41.910;22.404;2024-01-25T09:47:03;44.97;;;28.38;;
82646;SDS011;72325;41.910;22.404;2024-01-25T09:49:32;47.78;;;28.70;;
82646;SDS011;72325;41.910;22.404;2024-01-25T09:51:58;42.50;;;26.60;;
82646;SDS011;72325;41.910;22.404;2024-01-25T09:54:38;42.42;;;26.40;;
82646;SDS011;72325;41.910;22.404;2024-01-25T09:57:23;41.42;;;24.25;;
82646;SDS011;72325;41.910;22.404;2024-01-25T09:59:53;37.75;;;21.08;;
82646;SDS011;72325;41.910;22.404;2024-01-25T10:02:22;35.55;;;21.55;;
82646;SDS011;72325;41.910;22.404;2024-01-25T10:04:51;31.83;;;20.25;;
82646;SDS011;72325;41.910;22.404;2024-01-25T10:09:45;27.05;;;16.45;;
82646;SDS011;72325;41.910;22.404;2024-01-25T10:12:11;25.67;;;15.95;;
82646;SDS011;72325;41.910;22.404;2024-01-25T10:14:37;24.75;;;14.05;;
82646;SDS011;72325;41.910;22.404;2024-01-25T10:17:04;27.23;;;15.20;;
82646;SDS011;72325;41.910;22.404;2024-01-25T10:19:30;26.80;;;15.48;;
82646;SDS011;72325;41.910;22.404;2024-01-25T10:21:58;22.15;;;12.95;;
82646;SDS011;72325;41.910;22.404;2024-01-25T10:27:27;35.75;;;20.83;;
82646;SDS011;72325;41.910;22.404;2024-01-25T10:29:55;37.13;;;22.17;;
82646;SDS011;72325;41.910;22.404;2024-01-25T10:32:21;34.45;;;21.48;;
82646;SDS011;72325;41.910;22.404;2024-01-25T10:34:47;52.83;;;30.40;;
82646;SDS011;72325;41.910;22.404;2024-01-25T10:37:14;55.78;;;30.13;;
82646;SDS011;72325;41.910;22.404;2024-01-25T10:42:45;57.97;;;33.47;;
82646;SDS011;72325;41.910;22.404;2024-01-25T10:45:12;42.85;;;25.92;;
82646;SDS011;72325;41.910;22.404;2024-01-25T10:47:38;38.03;;;22.27;;
82646;SDS011;72325;41.910;22.404;2024-01-25T10:50:07;41.83;;;25.90;;
82646;SDS011;72325;41.910;22.404;2024-01-25T10:52:36;37.15;;;22.60;;
82646;SDS011;72325;41.910;22.404;2024-01-25T10:55:03;38.55;;;20.80;;
82646;SDS011;72325;41.910;22.404;2024-01-25T10:57:36;28.98;;;17.52;;
82646;SDS011;72325;41.910;22.404;2024-01-25T11:00:05;36.72;;;22.13;;
82646;SDS011;72325;41.910;22.404;2024-01-25T11:02:34;23.85;;;13.98;;
82646;SDS011;72325;41.910;22.404;2024-01-25T11:05:00;23.30;;;15.27;;
82646;SDS011;72325;41.910;22.404;2024-01-25T11:07:28;20.42;;;13.02;;
82646;SDS011;72325;41.910;22.404;2024-01-25T11:09:54;24.58;;;15.00;;
82646;SDS011;72325;41.910;22.404;2024-01-25T11:12:20;23.73;;;15.35;;
82646;SDS011;72325;41.910;22.404;2024-01-25T11:14:53;25.17;;;16.58;;
82646;SDS011;72325;41.910;22.404;2024-01-25T11:17:20;26.65;;;16.15;;
82646;SDS011;72325;41.910;22.404;2024-01-25T11:19:53;29.33;;;16.02;;
82646;SDS011;72325;41.910;22.404;2024-01-25T11:22:19;28.42;;;16.10;;
82646;SDS011;72325;41.910;22.404;2024-01-25T11:27:49;27.48;;;17.15;;
82646;SDS011;72325;41.910;22.404;2024-01-25T11:30:17;30.67;;;17.98;;
82646;SDS011;72325;41.910;22.404;2024-01-25T11:32:47;27.88;;;17.05;;
82646;SDS011;72325;41.910;22.404;2024-01-25T11:35:14;29.27;;;17.42;;
82646;SDS011;72325;41.910;22.404;2024-01-25T11:37:44;28.00;;;15.98;;
82646;SDS011;72325;41.910;22.404;2024-01-25T11:40:10;26.02;;;17.92;;
82646;SDS011;72325;41.910;22.404;2024-01-25T11:42:37;31.25;;;21.77;;
82646;SDS011;72325;41.910;22.404;2024-01-25T11:45:04;33.95;;;22.38;;
82646;SDS011;72325;41.910;22.404;2024-01-25T11:47:31;34.88;;;20.27;;
82646;SDS011;72325;41.910;22.404;2024-01-25T11:49:57;29.63;;;16.10;;
82646;SDS011;72325;41.910;22.404;2024-01-25T11:52:23;22.75;;;14.88;;
82646;SDS011;72325;41.910;22.404;2024-01-25T11:57:54;27.73;;;16.10;;
82646;SDS011;72325;41.910;22.404;2024-01-25T12:00:20;30.17;;;17.88;;
82646;SDS011;72325;41.910;22.404;2024-01-25T12:02:48;26.67;;;14.82;;
82646;SDS011;72325;41.910;22.404;2024-01-25T12:05:14;21.52;;;13.98;;
82646;SDS011;72325;41.910;22.404;2024-01-25T12:07:40;23.20;;;14.23;;
82646;SDS011;72325;41.910;22.404;2024-01-25T12:13:09;31.58;;;19.80;;
82646;SDS011;72325;41.910;22.404;2024-01-25T12:15:36;28.45;;;14.73;;
82646;SDS011;72325;41.910;22.404;2024-01-25T12:18:02;19.17;;;10.88;;
82646;SDS011;72325;41.910;22.404;2024-01-25T12:20:30;26.45;;;13.15;;
82646;SDS011;72325;41.910;22.404;2024-01-25T12:22:58;29.58;;;14.40;;
82646;SDS011;72325;41.910;22.404;2024-01-25T12:28:28;19.35;;;12.02;;
82646;SDS011;72325;41.910;22.404;2024-01-25T12:30:54;25.15;;;14.98;;
82646;SDS011;72325;41.910;22.404;2024-01-25T12:33:20;24.85;;;13.93;;
82646;SDS011;72325;41.910;22.404;2024-01-25T12:35:46;23.30;;;13.95;;
82646;SDS011;72325;41.910;22.404;2024-01-25T12:38:13;22.83;;;12.35;;
82646;SDS011;72325;41.910;22.404;2024-01-25T12:40:39;21.30;;;12.02;;
82646;SDS011;72325;41.910;22.404;2024-01-25T12:43:07;21.65;;;12.23;;
82646;SDS011;72325;41.910;22.404;2024-01-25T12:45:33;22.75;;;13.80;;
82646;SDS011;72325;41.910;22.404;2024-01-25T12:47:59;34.30;;;19.48;;
82646;SDS011;72325;41.910;22.404;2024-01-25T12:50:27;32.25;;;17.73;;
82646;SDS011;72325;41.910;22.404;2024-01-25T12:52:53;35.60;;;18.80;;
82646;SDS011;72325;41.910;22.404;2024-01-25T12:58:23;33.55;;;19.15;;
82646;SDS011;72325;41.910;22.404;2024-01-25T13:00:49;34.05;;;17.75;;
82646;SDS011;72325;41.910;22.404;2024-01-25T13:03:15;33.22;;;17.52;;
82646;SDS011;72325;41.910;22.404;2024-01-25T13:05:41;31.20;;;17.05;;
82646;SDS011;72325;41.910;22.404;2024-01-25T13:08:07;25.92;;;12.55;;
82646;SDS011;72325;41.910;22.404;2024-01-25T13:13:37;29.17;;;16.55;;
82646;SDS011;72325;41.910;22.404;2024-01-25T13:16:03;26.05;;;15.63;;
82646;SDS011;72325;41.910;22.404;2024-01-25T13:18:29;27.65;;;16.92;;
82646;SDS011;72325;41.910;22.404;2024-01-25T13:20:55;27.67;;;16.30;;
82646;SDS011;72325;41.910;22.404;2024-01-25T13:23:21;30.45;;;15.70;;
82646;SDS011;72325;41.910;22.404;2024-01-25T13:25:47;35.92;;;20.92;;
82646;SDS011;72325;41.910;22.404;2024-01-25T13:28:14;29.38;;;16.58;;
82646;SDS011;72325;41.910;22.404;2024-01-25T13:30:40;30.10;;;17.80;;
82646;SDS011;72325;41.910;22.404;2024-01-25T13:33:06;70.43;;;33.85;;
82646;SDS011;72325;41.910;22.404;2024-01-25T13:35:32;55.40;;;26.98;;
82646;SDS011;72325;41.910;22.404;2024-01-25T13:37:58;47.35;;;23.42;;
82646;SDS011;72325;41.910;22.404;2024-01-25T13:43:30;28.60;;;16.42;;
82646;SDS011;72325;41.910;22.404;2024-01-25T13:45:56;39.08;;;22.10;;
82646;SDS011;72325;41.910;22.404;2024-01-25T13:48:22;38.28;;;18.75;;
82646;SDS011;72325;41.910;22.404;2024-01-25T13:50:48;36.00;;;20.20;;
82646;SDS011;72325;41.910;22.404;2024-01-25T13:53:14;39.83;;;23.20;;
82646;SDS011;72325;41.910;22.404;2024-01-25T13:58:43;20.88;;;12.30;;
82646;SDS011;72325;41.910;22.404;2024-01-25T14:01:09;19.67;;;11.20;;
82646;SDS011;72325;41.910;22.404;2024-01-25T14:03:36;27.48;;;17.20;;
82646;SDS011;72325;41.910;22.404;2024-01-25T14:06:02;25.27;;;15.18;;
82646;SDS011;72325;41.910;22.404;2024-01-25T14:08:34;29.50;;;17.67;;
82646;SDS011;72325;41.910;22.404;2024-01-25T14:11:01;27.35;;;16.42;;
82646;SDS011;72325;41.910;22.404;2024-01-25T14:13:27;36.33;;;19.52;;
82646;SDS011;72325;41.910;22.404;2024-01-25T14:15:53;30.35;;;17.40;;
82646;SDS011;72325;41.910;22.404;2024-01-25T14:18:19;32.97;;;19.88;;
82646;SDS011;72325;41.910;22.404;2024-01-25T14:20:45;27.52;;;17.65;;
82646;SDS011;72325;41.910;22.404;2024-01-25T14:23:11;34.85;;;19.38;;
82646;SDS011;72325;41.910;22.404;2024-01-25T14:28:40;34.40;;;20.20;;
82646;SDS011;72325;41.910;22.404;2024-01-25T14:31:06;38.60;;;21.50;;
82646;SDS011;72325;41.910;22.404;2024-01-25T14:33:32;28.83;;;20.95;;
82646;SDS011;72325;41.910;22.404;2024-01-25T14:35:59;31.70;;;18.92;;
82646;SDS011;72325;41.910;22.404;2024-01-25T14:38:25;25.60;;;16.13;;
82646;SDS011;72325;41.910;22.404;2024-01-25T14:43:54;27.38;;;17.70;;
82646;SDS011;72325;41.910;22.404;2024-01-25T14:46:20;35.50;;;19.90;;
82646;SDS011;72325;41.910;22.404;2024-01-25T14:48:46;31.63;;;20.38;;
82646;SDS011;72325;41.910;22.404;2024-01-25T14:51:12;49.80;;;26.85;;
82646;SDS011;72325;41.910;22.404;2024-01-25T14:53:39;39.53;;;24.42;;
82646;SDS011;72325;41.910;22.404;2024-01-25T14:56:05;36.38;;;21.17;;
82646;SDS011;72325;41.910;22.404;2024-01-25T14:58:31;38.15;;;22.45;;
82646;SDS011;72325;41.910;22.404;2024-01-25T15:00:57;44.83;;;26.30;;
82646;SDS011;72325;41.910;22.404;2024-01-25T15:03:24;33.40;;;19.40;;
82646;SDS011;72325;41.910;22.404;2024-01-25T15:05:50;34.28;;;18.27;;
82646;SDS011;72325;41.910;22.404;2024-01-25T15:08:16;34.63;;;18.92;;
82646;SDS011;72325;41.910;22.404;2024-01-25T15:13:46;70.90;;;42.50;;
82646;SDS011;72325;41.910;22.404;2024-01-25T15:16:13;70.70;;;47.10;;
82646;SDS011;72325;41.910;22.404;2024-01-25T15:18:39;28.00;;;18.23;;
82646;SDS011;72325;41.910;22.404;2024-01-25T15:21:05;31.98;;;18.58;;
82646;SDS011;72325;41.910;22.404;2024-01-25T15:23:31;21.45;;;13.77;;
82646;SDS011;72325;41.910;22.404;2024-01-25T15:29:01;33.58;;;19.50;;
82646;SDS011;72325;41.910;22.404;2024-01-25T15:31:27;32.38;;;16.92;;
82646;SDS011;72325;41.910;22.404;2024-01-25T15:33:53;29.95;;;18.13;;
82646;SDS011;72325;41.910;22.404;2024-01-25T15:36:19;43.42;;;25.58;;
82646;SDS011;72325;41.910;22.404;2024-01-25T15:38:46;36.15;;;23.02;;
82646;SDS011;72325;41.910;22.404;2024-01-25T15:41:14;53.05;;;29.80;;
82646;SDS011;72325;41.910;22.404;2024-01-25T15:43:41;64.18;;;39.50;;
82646;SDS011;72325;41.910;22.404;2024-01-25T15:46:07;66.72;;;42.97;;
82646;SDS011;72325;41.910;22.404;2024-01-25T15:48:33;65.78;;;39.10;;
82646;SDS011;72325;41.910;22.404;2024-01-25T15:51:00;71.97;;;42.13;;
82646;SDS011;72325;41.910;22.404;2024-01-25T15:53:26;69.72;;;42.47;;
82646;SDS011;72325;41.910;22.404;2024-01-25T15:58:55;74.55;;;46.65;;
82646;SDS011;72325;41.910;22.404;2024-01-25T16:01:21;67.50;;;44.80;;
82646;SDS011;72325;41.910;22.404;2024-01-25T16:03:47;51.42;;;27.92;;
82646;SDS011;72325;41.910;22.404;2024-01-25T16:06:13;46.40;;;27.20;;
82646;SDS011;72325;41.910;22.404;2024-01-25T16:08:40;43.60;;;23.73;;
82646;SDS011;72325;41.910;22.404;2024-01-25T16:14:09;25.95;;;16.63;;
82646;SDS011;72325;41.910;22.404;2024-01-25T16:16:35;23.05;;;14.55;;
82646;SDS011;72325;41.910;22.404;2024-01-25T16:19:01;60.03;;;35.08;;
82646;SDS011;72325;41.910;22.404;2024-01-25T16:21:27;69.53;;;42.10;;